createdAt,value
2018-07-21T00:02:01.481Z,6.03
2018-07-21T00:04:29.696Z,5.53
2018-07-21T00:06:57.936Z,5.97
2018-07-21T00:09:26.189Z,5.83
2018-07-21T00:11:54.401Z,5.80
2018-07-21T00:14:22.630Z,5.07
2018-07-21T00:16:50.880Z,5.63
2018-07-21T00:19:19.109Z,5.50
2018-07-21T00:21:47.349Z,5.90
2018-07-21T00:24:15.568Z,5.73
2018-07-21T00:26:49.724Z,5.90
2018-07-21T00:29:19.545Z,5.30
2018-07-21T00:31:47.790Z,4.83
2018-07-21T00:34:16.037Z,5.40
2018-07-21T00:36:44.307Z,5.83
2018-07-21T00:39:14.243Z,5.60
2018-07-21T00:41:42.525Z,5.90
2018-07-21T00:44:10.769Z,5.43
2018-07-21T00:46:39.002Z,5.93
2018-07-21T00:49:07.357Z,6.57
2018-07-21T00:51:35.897Z,6.23
2018-07-21T00:54:04.113Z,6.20
2018-07-21T00:56:32.372Z,5.60
2018-07-21T00:59:00.608Z,5.53
2018-07-21T01:01:28.844Z,5.93
2018-07-21T01:03:57.076Z,5.60
2018-07-21T01:06:25.369Z,5.90
2018-07-21T01:08:53.612Z,6.00
2018-07-21T01:11:21.842Z,6.77
2018-07-21T01:13:50.113Z,5.63
2018-07-21T01:16:18.400Z,5.90
2018-07-21T01:18:46.620Z,5.90
2018-07-21T01:21:14.848Z,5.83
2018-07-21T01:23:43.068Z,6.20
2018-07-21T01:26:11.289Z,5.87
2018-07-21T01:28:39.524Z,5.77
2018-07-21T01:31:07.753Z,5.43
2018-07-21T01:33:35.988Z,5.87
2018-07-21T01:36:04.192Z,5.57
2018-07-21T01:38:32.429Z,5.70
2018-07-21T01:41:00.628Z,5.70
2018-07-21T01:43:28.856Z,5.73
2018-07-21T01:45:57.121Z,5.93
2018-07-21T01:48:25.361Z,5.97
2018-07-21T01:50:53.576Z,6.27
2018-07-21T01:53:21.812Z,5.40
2018-07-21T01:55:50.049Z,5.73
2018-07-21T01:58:18.261Z,5.80
2018-07-21T02:00:46.500Z,6.27
2018-07-21T02:03:14.744Z,6.07
2018-07-21T02:05:42.988Z,5.83
2018-07-21T02:08:11.204Z,5.60
2018-07-21T02:10:39.449Z,6.20
2018-07-21T02:13:07.692Z,6.27
2018-07-21T02:15:35.923Z,5.73
2018-07-21T02:18:04.125Z,5.10
2018-07-21T02:20:32.361Z,6.83
2018-07-21T02:23:00.622Z,6.30
2018-07-21T02:25:28.860Z,5.83
2018-07-21T02:27:57.069Z,6.17
2018-07-21T02:30:25.312Z,5.60
2018-07-21T02:32:53.529Z,6.20
2018-07-21T02:35:21.753Z,6.37
2018-07-21T02:37:49.980Z,6.23
2018-07-21T02:40:18.224Z,7.73
2018-07-21T02:42:46.460Z,6.60
2018-07-21T02:45:14.702Z,6.77
2018-07-21T02:47:42.937Z,7.17
2018-07-21T02:50:11.165Z,6.87
2018-07-21T02:52:39.428Z,5.73
2018-07-21T02:55:07.824Z,7.70
2018-07-21T02:57:36.109Z,6.90
2018-07-21T03:00:04.817Z,8.23
2018-07-21T03:02:33.044Z,6.80
2018-07-21T03:05:01.249Z,7.77
2018-07-21T03:07:29.469Z,7.97
2018-07-21T03:09:57.737Z,6.87
2018-07-21T03:12:25.933Z,7.77
2018-07-21T03:14:54.161Z,7.53
2018-07-21T03:17:22.376Z,7.13
2018-07-21T03:19:50.604Z,6.43
2018-07-21T03:22:18.841Z,6.10
2018-07-21T03:24:47.073Z,7.67
2018-07-21T03:27:15.276Z,7.23
2018-07-21T03:29:43.509Z,7.80
2018-07-21T03:32:11.848Z,7.27
2018-07-21T03:34:40.061Z,6.87
2018-07-21T03:37:08.296Z,7.83
2018-07-21T03:39:36.545Z,7.27
2018-07-21T03:42:04.837Z,6.77
2018-07-21T03:44:33.056Z,7.70
2018-07-21T03:47:01.294Z,7.27
2018-07-21T03:49:29.541Z,8.07
2018-07-21T03:51:57.753Z,7.57
2018-07-21T03:54:25.971Z,7.67
2018-07-21T03:56:54.188Z,8.33
2018-07-21T03:59:22.648Z,8.87
2018-07-21T04:01:50.889Z,7.10
2018-07-21T04:04:19.120Z,7.27
2018-07-21T04:06:47.337Z,7.80
2018-07-21T04:09:15.593Z,8.60
2018-07-21T04:11:43.841Z,8.10
2018-07-21T04:14:12.118Z,11.67
2018-07-21T04:16:40.366Z,10.77
2018-07-21T04:19:08.973Z,9.30
2018-07-21T04:21:37.204Z,9.90
2018-07-21T04:24:05.465Z,9.53
2018-07-21T04:26:33.653Z,11.10
2018-07-21T04:29:01.853Z,9.90
2018-07-21T04:31:30.101Z,9.37
2018-07-21T04:33:58.308Z,11.20
2018-07-21T04:36:26.585Z,9.27
2018-07-21T04:38:54.801Z,11.13
2018-07-21T04:41:23.052Z,9.53
2018-07-21T04:43:51.304Z,10.07
2018-07-21T04:46:19.661Z,9.37
2018-07-21T04:48:47.957Z,9.90
2018-07-21T04:51:16.277Z,9.07
2018-07-21T04:53:44.505Z,8.63
2018-07-21T04:56:12.764Z,8.90
2018-07-21T04:58:41.024Z,8.87
2018-07-21T05:01:09.337Z,8.07
2018-07-21T05:03:37.525Z,8.07
2018-07-21T05:06:05.761Z,8.17
2018-07-21T05:08:33.963Z,7.53
2018-07-21T05:11:02.179Z,7.93
2018-07-21T05:13:30.373Z,7.00
2018-07-21T05:15:58.597Z,8.23
2018-07-21T05:18:26.805Z,8.10
2018-07-21T05:20:55.041Z,8.27
2018-07-21T05:23:23.249Z,7.53
2018-07-21T05:25:52.356Z,8.77
2018-07-21T05:28:20.579Z,8.57
2018-07-21T05:30:48.805Z,7.70
2018-07-21T05:33:17.065Z,7.97
2018-07-21T05:35:45.301Z,8.27
2018-07-21T05:38:13.517Z,8.20
2018-07-21T05:40:41.781Z,8.70
2018-07-21T05:43:10.020Z,8.57
2018-07-21T05:45:38.265Z,8.63
2018-07-21T05:48:06.121Z,9.23
2018-07-21T05:50:34.348Z,9.67
2018-07-21T05:53:02.664Z,8.67
2018-07-21T05:55:30.877Z,8.83
2018-07-21T05:57:59.100Z,8.93
2018-07-21T06:00:27.313Z,8.17
2018-07-21T06:02:55.588Z,8.80
2018-07-21T06:05:23.836Z,8.40
2018-07-21T06:07:52.051Z,8.47
2018-07-21T06:10:20.313Z,7.80
2018-07-21T06:12:48.540Z,8.47
2018-07-21T06:15:16.817Z,8.50
2018-07-21T06:17:45.058Z,8.83
2018-07-21T06:20:13.289Z,8.27
2018-07-21T06:22:41.529Z,9.60
2018-07-21T06:25:09.880Z,10.37
2018-07-21T06:27:38.033Z,11.43
2018-07-21T06:30:06.393Z,12.43
2018-07-21T06:32:34.600Z,12.23
2018-07-21T06:35:02.829Z,11.53
2018-07-21T06:37:31.065Z,11.63
2018-07-21T06:39:59.308Z,13.93
2018-07-21T06:42:27.749Z,14.30
2018-07-21T06:44:55.993Z,12.40
2018-07-21T06:47:24.213Z,13.53
2018-07-21T06:49:52.424Z,12.97
2018-07-21T06:52:20.632Z,13.03
2018-07-21T06:54:48.899Z,12.33
2018-07-21T06:57:17.148Z,12.57
2018-07-21T06:59:45.373Z,12.67
2018-07-21T07:02:13.612Z,12.67
2018-07-21T07:04:41.850Z,13.90
2018-07-21T07:07:10.089Z,13.00
2018-07-21T07:09:38.333Z,14.13
2018-07-21T07:12:06.597Z,12.50
2018-07-21T07:14:34.813Z,12.87
2018-07-21T07:17:03.037Z,13.93
2018-07-21T07:19:31.265Z,13.60
2018-07-21T07:21:59.494Z,12.13
2018-07-21T07:24:27.749Z,13.53
2018-07-21T07:26:55.957Z,14.13
2018-07-21T07:29:24.269Z,14.07
2018-07-21T07:31:52.517Z,15.53
2018-07-21T07:34:20.755Z,13.63
2018-07-21T07:36:48.969Z,15.90
2018-07-21T07:39:17.200Z,14.90
2018-07-21T07:41:45.420Z,16.33
2018-07-21T07:44:13.661Z,16.50
2018-07-21T07:46:41.897Z,16.00
2018-07-21T07:49:10.109Z,14.33
2018-07-21T07:51:38.332Z,14.87
2018-07-21T07:54:06.553Z,16.47
2018-07-21T07:56:34.785Z,15.13
2018-07-21T07:59:03.005Z,18.67
2018-07-21T08:01:31.229Z,15.73
2018-07-21T08:03:59.445Z,13.37
2018-07-21T08:06:27.677Z,17.50
2018-07-21T08:08:55.895Z,15.60
2018-07-21T08:11:24.145Z,16.47
2018-07-21T08:13:52.377Z,15.60
2018-07-21T08:16:20.620Z,16.83
2018-07-21T08:18:48.940Z,17.13
2018-07-21T08:21:17.180Z,14.23
2018-07-21T08:23:45.436Z,15.77
2018-07-21T08:26:13.679Z,14.43
2018-07-21T08:28:41.893Z,18.80
2018-07-21T08:31:10.147Z,17.50
2018-07-21T08:33:38.716Z,18.37
2018-07-21T08:36:07.741Z,17.07
2018-07-21T08:38:36.037Z,14.47
2018-07-21T08:41:04.273Z,15.90
2018-07-21T08:43:32.508Z,18.83
2018-07-21T08:46:00.777Z,16.43
2018-07-21T08:48:29.011Z,15.13
2018-07-21T08:50:57.287Z,15.23
2018-07-21T08:53:25.505Z,14.47
2018-07-21T08:55:53.772Z,13.33
2018-07-21T08:58:21.949Z,14.20
2018-07-21T09:00:50.189Z,16.83
2018-07-21T09:03:18.405Z,17.87
2018-07-21T09:05:46.675Z,17.67
2018-07-21T09:08:14.881Z,19.17
2018-07-21T09:10:43.125Z,17.27
2018-07-21T09:13:11.421Z,15.43
2018-07-21T09:15:39.689Z,17.27
2018-07-21T09:18:07.903Z,17.80
2018-07-21T09:20:36.132Z,16.17
2018-07-21T09:23:04.368Z,17.83
2018-07-21T09:25:32.632Z,12.67
2018-07-21T09:28:00.857Z,11.40
2018-07-21T09:30:29.099Z,12.03
2018-07-21T09:32:57.353Z,13.27
2018-07-21T09:35:25.612Z,11.87
2018-07-21T09:37:53.833Z,10.80
2018-07-21T09:40:22.073Z,9.43
2018-07-21T09:42:50.293Z,12.33
2018-07-21T09:45:18.526Z,11.70
2018-07-21T09:47:46.741Z,11.10
2018-07-21T09:50:14.979Z,10.30
2018-07-21T09:52:43.216Z,12.33
2018-07-21T09:55:11.461Z,9.77
2018-07-21T09:57:39.809Z,10.20
2018-07-21T10:00:09.925Z,12.50
2018-07-21T10:02:38.292Z,8.90
2018-07-21T10:05:07.205Z,9.27
2018-07-21T10:07:35.497Z,9.47
2018-07-21T10:10:03.819Z,11.00
2018-07-21T10:12:32.054Z,10.67
2018-07-21T10:15:00.280Z,8.27
2018-07-21T10:17:28.529Z,9.33
2018-07-21T10:19:56.776Z,10.87
2018-07-21T10:22:25.105Z,9.57
2018-07-21T10:24:58.616Z,9.90
2018-07-21T10:27:32.129Z,11.00
2018-07-21T10:30:00.365Z,8.27
2018-07-21T10:32:27.592Z,11.13
2018-07-21T10:34:55.821Z,9.43
2018-07-21T10:37:24.036Z,8.90
2018-07-21T10:39:52.245Z,7.33
2018-07-21T10:42:20.469Z,10.00
2018-07-21T10:44:48.753Z,8.47
2018-07-21T10:47:17.012Z,6.73
2018-07-21T10:49:45.256Z,6.47
2018-07-21T10:52:13.477Z,6.40
2018-07-21T10:54:41.704Z,7.27
2018-07-21T10:57:09.908Z,6.00
2018-07-21T10:59:38.144Z,6.07
2018-07-21T11:02:06.378Z,7.17
2018-07-21T11:04:34.617Z,7.70
2018-07-21T11:07:02.857Z,6.20
2018-07-21T11:09:31.093Z,7.00
2018-07-21T11:11:59.336Z,6.30
2018-07-21T11:14:27.544Z,5.97
2018-07-21T11:16:55.780Z,6.83
2018-07-21T11:19:24.031Z,7.00
2018-07-21T11:21:52.369Z,5.87
2018-07-21T11:24:20.526Z,6.83
2018-07-21T11:26:48.741Z,6.63
2018-07-21T11:29:17.009Z,8.03
2018-07-21T11:31:45.244Z,6.27
2018-07-21T11:34:13.445Z,6.50
2018-07-21T11:36:41.674Z,7.33
2018-07-21T11:39:10.182Z,6.93
2018-07-21T11:41:38.434Z,5.77
2018-07-21T11:44:06.652Z,6.83
2018-07-21T11:46:34.877Z,6.13
2018-07-21T11:49:03.081Z,5.87
2018-07-21T11:51:31.340Z,6.13
2018-07-21T11:53:59.549Z,7.00
2018-07-21T11:56:27.788Z,5.97
2018-07-21T11:58:56.013Z,6.30
2018-07-21T12:01:24.230Z,6.77
2018-07-21T12:03:52.445Z,5.30
2018-07-21T12:06:20.704Z,7.00
2018-07-21T12:08:48.955Z,6.63
2018-07-21T12:11:17.185Z,5.43
2018-07-21T12:13:45.390Z,6.63
2018-07-21T12:16:13.626Z,5.87
2018-07-21T12:18:41.858Z,6.87
2018-07-21T12:21:10.085Z,7.30
2018-07-21T12:23:38.373Z,6.87
2018-07-21T12:26:07.028Z,6.33
2018-07-21T12:28:35.261Z,7.43
2018-07-21T12:31:03.476Z,5.57
2018-07-21T12:33:31.740Z,6.00
2018-07-21T12:35:59.981Z,6.53
2018-07-21T12:38:28.275Z,6.37
2018-07-21T12:40:56.484Z,6.90
2018-07-21T12:43:24.708Z,6.40
2018-07-21T12:45:53.024Z,7.70
2018-07-21T12:48:21.261Z,6.67
2018-07-21T12:50:49.469Z,6.10
2018-07-21T12:53:17.701Z,5.73
2018-07-21T12:55:45.900Z,6.33
2018-07-21T12:58:14.109Z,5.67
2018-07-21T13:00:42.381Z,5.60
2018-07-21T13:03:10.637Z,5.60
2018-07-21T13:05:38.849Z,5.47
2018-07-21T13:08:07.189Z,5.50
2018-07-21T13:10:35.408Z,5.67
2018-07-21T13:13:03.644Z,6.00
2018-07-21T13:15:31.869Z,6.63
2018-07-21T13:18:00.104Z,6.43
2018-07-21T13:20:28.320Z,5.10
2018-07-21T13:22:56.565Z,5.50
2018-07-21T13:25:24.828Z,5.27
2018-07-21T13:27:53.044Z,5.67
2018-07-21T13:30:21.282Z,5.70
2018-07-21T13:32:49.497Z,5.60
2018-07-21T13:35:17.730Z,5.80
2018-07-21T13:37:45.949Z,5.90
2018-07-21T13:40:14.187Z,5.60
2018-07-21T13:42:42.412Z,5.97
2018-07-21T13:45:10.653Z,5.33
2018-07-21T13:47:38.922Z,5.33
2018-07-21T13:50:07.204Z,5.57
2018-07-21T13:52:35.410Z,6.10
2018-07-21T13:55:03.709Z,5.83
2018-07-21T13:57:31.884Z,5.67
2018-07-21T14:00:00.173Z,6.47
2018-07-21T14:02:28.372Z,6.57
2018-07-21T14:04:56.600Z,6.23
2018-07-21T14:07:24.849Z,7.47
2018-07-21T14:09:53.049Z,6.47
2018-07-21T14:12:21.293Z,5.93
2018-07-21T14:14:49.500Z,6.53
2018-07-21T14:17:17.755Z,6.47
2018-07-21T14:19:45.976Z,5.67
2018-07-21T14:22:14.373Z,6.53
2018-07-21T14:24:42.585Z,6.30
2018-07-21T14:27:10.833Z,5.97
2018-07-21T14:29:39.134Z,6.60
2018-07-21T14:32:07.328Z,6.20
2018-07-21T14:34:35.536Z,5.60
2018-07-21T14:37:03.813Z,6.83
2018-07-21T14:39:32.030Z,7.40
2018-07-21T14:42:00.260Z,7.87
2018-07-21T14:44:28.474Z,7.80
2018-07-21T14:46:56.704Z,6.87
2018-07-21T14:49:24.951Z,6.83
2018-07-21T14:51:53.160Z,6.37
2018-07-21T14:54:21.381Z,6.53
2018-07-21T14:56:49.593Z,7.03
2018-07-21T14:59:17.821Z,6.93
2018-07-21T15:01:46.120Z,5.67
2018-07-21T15:04:14.329Z,6.50
2018-07-21T15:06:42.574Z,6.40
2018-07-21T15:09:11.770Z,6.70
2018-07-21T15:11:40.022Z,6.30
2018-07-21T15:14:08.377Z,6.00
2018-07-21T15:16:36.648Z,6.50
2018-07-21T15:19:04.856Z,6.00
2018-07-21T15:21:33.088Z,5.40
2018-07-21T15:24:01.375Z,5.60
2018-07-21T15:26:29.536Z,5.27
2018-07-21T15:28:57.752Z,5.50
2018-07-21T15:31:25.996Z,5.83
2018-07-21T15:33:54.209Z,4.53
2018-07-21T15:36:22.440Z,5.27
2018-07-21T15:38:50.659Z,5.37
2018-07-21T15:41:18.889Z,5.07
2018-07-21T15:43:47.120Z,4.73
2018-07-21T15:46:15.372Z,4.73
2018-07-21T15:48:43.582Z,4.60
2018-07-21T15:51:11.808Z,4.40
2018-07-21T15:53:40.021Z,4.67
2018-07-21T15:56:08.269Z,5.03
2018-07-21T15:58:36.493Z,4.73
2018-07-21T16:01:04.778Z,4.77
2018-07-21T16:03:33.005Z,4.80
2018-07-21T16:06:01.301Z,5.67
2018-07-21T16:08:29.543Z,4.83
2018-07-21T16:10:57.764Z,4.97
2018-07-21T16:13:26.066Z,4.80
2018-07-21T16:15:54.307Z,4.87
2018-07-21T16:18:22.516Z,4.93
2018-07-21T16:20:50.719Z,4.80
2018-07-21T16:23:18.936Z,5.20
2018-07-21T16:25:47.144Z,5.10
2018-07-21T16:28:15.358Z,5.70
2018-07-21T16:30:43.605Z,5.67
2018-07-21T16:33:11.813Z,6.50
2018-07-21T16:35:40.054Z,6.80
2018-07-21T16:38:08.260Z,7.17
2018-07-21T16:40:36.493Z,5.70
2018-07-21T16:43:04.733Z,5.43
2018-07-21T16:45:32.983Z,6.60
2018-07-21T16:48:01.207Z,6.10
2018-07-21T16:50:29.437Z,5.03
2018-07-21T16:52:57.679Z,5.43
2018-07-21T16:55:25.937Z,5.80
2018-07-21T16:57:54.256Z,5.03
2018-07-21T17:00:22.490Z,5.03
2018-07-21T17:02:50.736Z,5.30
2018-07-21T17:05:18.937Z,4.87
2018-07-21T17:07:47.189Z,6.17
2018-07-21T17:10:15.429Z,5.77
2018-07-21T17:12:43.645Z,5.00
2018-07-21T17:15:11.865Z,6.93
2018-07-21T17:17:40.089Z,7.30
2018-07-21T17:20:08.329Z,8.47
2018-07-21T17:22:36.560Z,7.23
2018-07-21T17:25:04.776Z,6.53
2018-07-21T17:27:33.017Z,6.27
2018-07-21T17:30:01.261Z,6.37
2018-07-21T17:32:29.531Z,7.07
2018-07-21T17:34:57.777Z,6.53
2018-07-21T17:37:26.029Z,7.27
2018-07-21T17:39:54.235Z,7.37
2018-07-21T17:42:22.510Z,7.67
2018-07-21T17:44:50.789Z,7.03
2018-07-21T17:47:18.980Z,6.87
2018-07-21T17:49:47.181Z,7.83
2018-07-21T17:52:15.431Z,7.80
2018-07-21T17:54:43.676Z,7.20
2018-07-21T17:57:11.904Z,8.40
2018-07-21T17:59:40.114Z,8.37
2018-07-21T18:02:08.415Z,7.73
2018-07-21T18:04:36.819Z,7.60
2018-07-21T18:07:05.053Z,8.63
2018-07-21T18:09:33.301Z,8.20
2018-07-21T18:12:01.569Z,7.70
2018-07-21T18:14:29.785Z,7.73
2018-07-21T18:16:58.010Z,7.63
2018-07-21T18:19:26.236Z,7.67
2018-07-21T18:21:54.469Z,8.10
2018-07-21T18:24:22.689Z,7.17
2018-07-21T18:26:50.904Z,7.00
2018-07-21T18:29:19.116Z,9.03
2018-07-21T18:31:47.403Z,7.87
2018-07-21T18:34:15.597Z,7.20
2018-07-21T18:36:43.813Z,7.87
2018-07-21T18:39:12.709Z,7.80
2018-07-21T18:41:41.516Z,7.57
2018-07-21T18:44:09.741Z,7.53
2018-07-21T18:46:38.131Z,6.37
2018-07-21T18:49:06.367Z,6.90
2018-07-21T18:51:34.614Z,7.40
2018-07-21T18:54:02.821Z,7.60
2018-07-21T18:56:31.045Z,8.90
2018-07-21T18:58:59.256Z,7.53
2018-07-21T19:01:27.485Z,7.27
2018-07-21T19:03:55.716Z,7.90
2018-07-21T19:06:23.930Z,7.13
2018-07-21T19:08:57.529Z,9.53
2018-07-21T19:11:25.748Z,10.20
2018-07-21T19:13:54.033Z,7.90
2018-07-21T19:16:27.472Z,6.90
2018-07-21T19:18:55.684Z,6.20
2018-07-21T19:21:23.969Z,6.63
2018-07-21T19:23:52.433Z,6.20
2018-07-21T19:26:26.097Z,9.03
2018-07-21T19:28:54.368Z,8.80
2018-07-21T19:31:22.653Z,6.37
2018-07-21T19:33:50.895Z,8.70
2018-07-21T19:36:19.101Z,7.10
2018-07-21T19:38:47.316Z,7.50
2018-07-21T19:41:20.965Z,7.57
2018-07-21T19:43:49.216Z,7.07
2018-07-21T19:46:17.431Z,7.30
2018-07-21T19:48:45.657Z,8.13
2018-07-21T19:51:13.881Z,7.70
2018-07-21T19:53:42.122Z,8.30
2018-07-21T19:56:10.365Z,7.97
2018-07-21T19:58:38.584Z,8.27
2018-07-21T20:01:06.837Z,8.27
2018-07-21T20:03:35.052Z,8.47
2018-07-21T20:06:03.270Z,8.93
2018-07-21T20:08:31.562Z,9.10
2018-07-21T20:10:59.733Z,9.47
2018-07-21T20:13:27.977Z,9.53
2018-07-21T20:15:56.181Z,9.10
2018-07-21T20:18:24.429Z,9.70
2018-07-21T20:20:52.661Z,8.27
2018-07-21T20:23:20.872Z,9.20
2018-07-21T20:25:49.092Z,8.53
2018-07-21T20:28:17.333Z,8.93
2018-07-21T20:30:45.558Z,9.33
2018-07-21T20:33:13.828Z,10.30
2018-07-21T20:35:42.045Z,9.90
2018-07-21T20:38:10.291Z,8.57
2018-07-21T20:40:38.501Z,9.73
2018-07-21T20:43:06.830Z,9.13
2018-07-21T20:45:35.077Z,10.07
2018-07-21T20:48:03.309Z,8.63
2018-07-21T20:50:31.516Z,9.30
2018-07-21T20:52:59.736Z,10.60
2018-07-21T20:55:27.976Z,9.33
2018-07-21T20:57:59.509Z,9.30
2018-07-21T21:00:27.827Z,9.83
2018-07-21T21:02:55.977Z,10.27
2018-07-21T21:05:24.229Z,11.30
2018-07-21T21:07:52.474Z,11.90
2018-07-21T21:10:20.693Z,11.50
2018-07-21T21:12:48.945Z,11.03
2018-07-21T21:15:17.185Z,13.67
2018-07-21T21:17:45.456Z,11.47
2018-07-21T21:20:13.712Z,12.50
2018-07-21T21:22:41.969Z,11.83
2018-07-21T21:25:10.161Z,9.73
2018-07-21T21:27:38.489Z,9.90
2018-07-21T21:30:06.751Z,8.63
2018-07-21T21:32:34.968Z,11.17
2018-07-21T21:35:03.213Z,9.60
2018-07-21T21:37:31.448Z,11.40
2018-07-21T21:39:59.704Z,10.60
2018-07-21T21:42:28.034Z,9.70
2018-07-21T21:44:56.191Z,10.03
2018-07-21T21:47:24.416Z,10.40
2018-07-21T21:49:52.664Z,13.00
2018-07-21T21:52:20.894Z,12.17
2018-07-21T21:54:49.136Z,10.87
2018-07-21T21:57:17.393Z,11.50
2018-07-21T21:59:45.636Z,12.00
2018-07-21T22:02:13.857Z,10.80
2018-07-21T22:04:42.125Z,10.63
2018-07-21T22:07:10.337Z,12.13
2018-07-21T22:09:38.560Z,11.30
2018-07-21T22:12:06.818Z,11.90
2018-07-21T22:14:35.034Z,11.63
2018-07-21T22:17:03.320Z,10.80
2018-07-21T22:19:32.474Z,11.93
2018-07-21T22:22:00.705Z,12.13
2018-07-21T22:24:28.950Z,12.07
2018-07-21T22:26:57.194Z,10.70
2018-07-21T22:29:25.405Z,10.63
2018-07-21T22:31:53.632Z,10.83
2018-07-21T22:34:21.876Z,11.00
2018-07-21T22:36:50.121Z,10.97
2018-07-21T22:39:18.349Z,11.73
2018-07-21T22:41:46.621Z,9.60
2018-07-21T22:44:14.943Z,10.17
2018-07-21T22:46:43.142Z,9.07
2018-07-21T22:49:11.381Z,9.53
2018-07-21T22:51:39.604Z,9.10
2018-07-21T22:54:07.829Z,8.53
2018-07-21T22:56:36.057Z,7.77
2018-07-21T22:59:04.292Z,8.20
2018-07-21T23:01:32.539Z,6.83
2018-07-21T23:04:00.809Z,7.13
2018-07-21T23:06:29.029Z,6.93
2018-07-21T23:08:57.240Z,7.27
2018-07-21T23:11:25.478Z,6.70
2018-07-21T23:13:53.689Z,7.17
2018-07-21T23:16:21.925Z,7.17
2018-07-21T23:18:50.132Z,7.10
2018-07-21T23:21:18.369Z,5.80
2018-07-21T23:23:46.601Z,7.00
2018-07-21T23:26:14.869Z,6.17
2018-07-21T23:28:43.077Z,6.57
2018-07-21T23:31:11.352Z,6.83
2018-07-21T23:33:39.597Z,7.57
2018-07-21T23:36:07.841Z,7.10
2018-07-21T23:38:36.162Z,6.80
2018-07-21T23:41:04.389Z,6.83
2018-07-21T23:43:32.609Z,7.27
2018-07-21T23:46:00.848Z,6.10
2018-07-21T23:48:29.078Z,7.57
2018-07-21T23:50:57.313Z,6.57
2018-07-21T23:53:25.546Z,6.27
2018-07-21T23:55:53.769Z,7.37
2018-07-21T23:58:21.986Z,7.47
